createdAt,value
2019-05-15T00:01:28.546Z,100472.38
2019-05-15T00:03:58.412Z,100473.55
2019-05-15T00:06:28.371Z,100469.81
2019-05-15T00:08:55.576Z,100464.00
2019-05-15T00:11:23.379Z,100464.46
2019-05-15T00:14:10.619Z,100464.76
2019-05-15T00:16:38.818Z,100458.18
2019-05-15T00:19:08.616Z,100458.31
2019-05-15T00:21:38.244Z,100457.19
2019-05-15T00:24:12.727Z,100459.98
2019-05-15T00:26:38.355Z,100460.61
2019-05-15T00:29:12.775Z,100458.50
2019-05-15T00:31:35.395Z,100456.41
2019-05-15T00:34:03.252Z,100456.13
2019-05-15T00:36:31.085Z,100448.38
2019-05-15T00:38:59.137Z,100449.48
2019-05-15T00:41:27.886Z,100448.70
2019-05-15T00:43:55.736Z,100446.03
2019-05-15T00:46:42.943Z,100440.20
2019-05-15T00:49:10.728Z,100440.25
2019-05-15T00:51:39.148Z,100356.53
2019-05-15T00:54:08.421Z,100433.25
2019-05-15T00:56:36.486Z,100435.68
2019-05-15T00:59:04.906Z,100432.44
2019-05-15T01:01:32.884Z,100430.63
2019-05-15T01:04:00.660Z,100430.84
2019-05-15T01:06:28.615Z,100426.90
2019-05-15T01:08:58.702Z,100420.39
2019-05-15T01:11:28.362Z,100419.13
2019-05-15T01:13:55.734Z,100422.69
2019-05-15T01:16:23.506Z,100416.59
2019-05-15T01:18:51.268Z,100422.02
2019-05-15T01:21:19.129Z,100420.37
2019-05-15T01:23:48.424Z,100420.43
2019-05-15T01:26:18.677Z,100419.36
2019-05-15T01:28:49.509Z,100417.64
2019-05-15T01:31:19.072Z,100416.57
2019-05-15T01:33:51.917Z,100411.92
2019-05-15T01:36:19.731Z,100411.83
2019-05-15T01:38:48.061Z,100409.39
2019-05-15T01:41:15.974Z,100408.78
2019-05-15T01:43:43.899Z,100410.42
2019-05-15T01:46:11.708Z,100406.73
2019-05-15T01:48:39.497Z,100410.59
2019-05-15T01:51:09.346Z,100402.39
2019-05-15T01:53:38.514Z,100399.14
2019-05-15T01:56:08.486Z,100400.31
2019-05-15T01:58:38.213Z,100395.70
2019-05-15T02:01:08.051Z,100393.09
2019-05-15T02:03:38.320Z,100394.62
2019-05-15T02:06:08.021Z,100396.09
2019-05-15T02:08:35.459Z,100391.89
2019-05-15T02:11:03.233Z,100388.31
2019-05-15T02:13:31.212Z,100392.45
2019-05-15T02:15:59.053Z,100388.39
2019-05-15T02:18:28.508Z,100393.53
2019-05-15T02:20:58.721Z,100389.47
2019-05-15T02:23:28.091Z,100389.69
2019-05-15T02:25:56.021Z,100391.74
2019-05-15T02:28:23.794Z,100391.16
2019-05-15T02:30:51.639Z,100388.59
2019-05-15T02:33:20.486Z,100390.18
2019-05-15T02:35:50.259Z,100387.25
2019-05-15T02:38:19.955Z,100387.87
2019-05-15T02:40:49.382Z,100387.13
2019-05-15T02:43:18.982Z,100386.02
2019-05-15T02:45:50.398Z,100388.28
2019-05-15T02:48:19.942Z,100388.57
2019-05-15T02:50:49.850Z,100391.88
2019-05-15T02:53:18.937Z,100391.75
2019-05-15T02:55:49.208Z,100388.50
2019-05-15T02:58:20.450Z,100385.80
2019-05-15T03:00:49.568Z,100380.70
2019-05-15T03:03:15.705Z,100385.77
2019-05-15T03:05:43.531Z,100382.99
2019-05-15T03:08:11.327Z,100376.95
2019-05-15T03:10:40.721Z,100378.95
2019-05-15T03:13:14.469Z,100382.43
2019-05-15T03:15:42.290Z,100376.53
2019-05-15T03:18:10.330Z,100382.28
2019-05-15T03:20:38.973Z,100382.20
2019-05-15T03:23:09.787Z,100375.02
2019-05-15T03:25:40.116Z,100374.68
2019-05-15T03:28:10.094Z,100379.73
2019-05-15T03:31:06.736Z,100375.19
2019-05-15T03:33:11.497Z,100379.50
2019-05-15T03:35:41.993Z,100380.83
2019-05-15T03:38:09.245Z,100378.90
2019-05-15T03:40:39.473Z,100379.70
2019-05-15T03:43:08.886Z,100376.61
2019-05-15T03:45:36.061Z,100376.45
2019-05-15T03:48:03.952Z,100375.08
2019-05-15T03:50:31.791Z,100384.86
2019-05-15T03:52:59.627Z,100380.60
2019-05-15T03:55:29.628Z,100380.24
2019-05-15T03:57:59.208Z,100382.10
2019-05-15T04:00:29.871Z,100390.45
2019-05-15T04:02:58.949Z,100389.23
2019-05-15T04:05:29.134Z,100389.18
2019-05-15T04:07:59.511Z,100390.42
2019-05-15T04:10:28.620Z,100388.19
2019-05-15T04:13:26.030Z,100388.08
2019-05-15T04:15:53.841Z,100387.48
2019-05-15T04:18:21.638Z,100386.31
2019-05-15T04:20:49.627Z,100385.42
2019-05-15T04:23:23.008Z,100385.98
2019-05-15T04:25:52.983Z,100387.70
2019-05-15T04:28:21.336Z,100385.64
2019-05-15T04:30:49.632Z,100387.80
2019-05-15T04:33:19.916Z,100390.86
2019-05-15T04:35:49.726Z,100392.78
2019-05-15T04:38:19.526Z,100392.36
2019-05-15T04:40:49.940Z,100389.81
2019-05-15T04:43:19.410Z,100392.81
2019-05-15T04:45:49.597Z,100388.88
2019-05-15T04:48:35.780Z,100387.91
2019-05-15T04:51:05.836Z,100387.06
2019-05-15T04:53:33.834Z,100388.94
2019-05-15T04:56:01.655Z,100393.42
2019-05-15T04:58:29.881Z,100391.25
2019-05-15T05:00:59.837Z,100393.99
2019-05-15T05:03:29.323Z,100382.23
2019-05-15T05:05:59.139Z,100382.56
2019-05-15T05:08:29.003Z,100383.39
2019-05-15T05:10:59.243Z,100377.14
2019-05-15T05:13:31.923Z,100377.13
2019-05-15T05:15:59.718Z,100383.58
2019-05-15T05:18:48.816Z,100384.67
2019-05-15T05:21:18.420Z,100383.06
2019-05-15T05:23:48.410Z,100386.02
2019-05-15T05:26:18.331Z,100385.51
2019-05-15T05:28:45.709Z,100398.27
2019-05-15T05:31:14.305Z,100421.05
2019-05-15T05:33:42.334Z,100410.21
2019-05-15T05:36:12.035Z,100391.43
2019-05-15T05:38:39.811Z,100403.02
2019-05-15T05:41:08.291Z,100407.17
2019-05-15T05:43:38.374Z,100397.55
2019-05-15T05:46:05.972Z,100398.62
2019-05-15T05:48:33.988Z,100392.51
2019-05-15T05:51:01.813Z,100393.10
2019-05-15T05:53:29.580Z,100391.47
2019-05-15T05:55:58.058Z,100384.17
2019-05-15T05:58:26.016Z,100376.27
2019-05-15T06:00:53.812Z,100378.06
2019-05-15T06:03:21.550Z,100374.14
2019-05-15T06:05:49.927Z,100371.47
2019-05-15T06:08:19.504Z,100368.49
2019-05-15T06:10:49.520Z,100371.27
2019-05-15T06:13:18.508Z,100373.31
2019-05-15T06:15:48.825Z,100369.72
2019-05-15T06:18:19.143Z,100365.95
2019-05-15T06:20:46.095Z,100365.63
2019-05-15T06:23:13.884Z,100358.66
2019-05-15T06:25:44.038Z,100352.91
2019-05-15T06:28:11.824Z,100351.60
2019-05-15T06:30:41.406Z,100346.05
2019-05-15T06:33:13.262Z,100341.41
2019-05-15T06:35:39.547Z,100343.55
2019-05-15T06:38:08.522Z,100334.20
2019-05-15T06:40:36.613Z,100335.75
2019-05-15T06:43:04.390Z,100330.38
2019-05-15T06:45:32.195Z,100325.07
2019-05-15T06:48:01.582Z,100320.26
2019-05-15T06:50:39.666Z,100317.86
2019-05-15T06:53:10.662Z,100311.96
2019-05-15T06:55:38.792Z,100306.14
2019-05-15T06:58:09.214Z,100309.19
2019-05-15T07:00:39.111Z,100308.37
2019-05-15T07:03:20.160Z,100303.24
2019-05-15T07:05:38.516Z,100297.66
2019-05-15T07:08:06.103Z,100293.99
2019-05-15T07:10:33.898Z,100298.88
2019-05-15T07:13:01.715Z,100295.09
2019-05-15T07:15:29.510Z,100295.80
2019-05-15T07:17:58.035Z,100298.66
2019-05-15T07:20:28.494Z,100297.70
2019-05-15T07:22:58.638Z,100287.81
2019-05-15T07:25:29.191Z,100287.89
2019-05-15T07:27:58.093Z,100285.34
2019-05-15T07:30:28.614Z,100289.63
2019-05-15T07:32:58.591Z,100299.21
2019-05-15T07:35:28.812Z,100295.09
2019-05-15T07:37:58.616Z,100298.89
2019-05-15T07:40:29.010Z,100286.88
2019-05-15T07:43:28.733Z,100286.77
2019-05-15T07:45:58.788Z,100291.31
2019-05-15T07:48:28.868Z,100283.17
2019-05-15T07:50:55.911Z,100282.93
2019-05-15T07:53:23.725Z,100273.55
2019-05-15T07:55:51.613Z,100280.05
2019-05-15T07:58:21.643Z,100280.52
2019-05-15T08:00:49.598Z,100276.25
2019-05-15T08:03:18.431Z,100281.18
2019-05-15T08:05:57.985Z,100281.41
2019-05-15T08:08:18.395Z,100284.53
2019-05-15T08:10:48.557Z,100280.74
2019-05-15T08:13:31.087Z,100280.70
2019-05-15T08:15:58.874Z,100281.91
2019-05-15T08:18:29.088Z,100282.62
2019-05-15T08:20:58.546Z,100280.19
2019-05-15T08:23:31.691Z,100279.98
2019-05-15T08:25:59.860Z,100276.06
2019-05-15T08:28:28.806Z,100272.84
2019-05-15T08:30:58.398Z,100275.98
2019-05-15T08:33:28.038Z,100271.73
2019-05-15T08:35:58.610Z,100265.72
2019-05-15T08:38:25.707Z,100264.14
2019-05-15T08:40:53.547Z,100260.48
2019-05-15T08:43:22.567Z,100263.17
2019-05-15T08:45:50.352Z,100254.88
2019-05-15T08:48:18.602Z,100265.75
2019-05-15T08:50:48.807Z,100260.44
2019-05-15T08:53:28.757Z,100255.19
2019-05-15T08:55:58.832Z,100251.38
2019-05-15T08:58:28.895Z,100248.52
2019-05-15T09:00:58.575Z,100244.73
2019-05-15T09:03:28.468Z,100243.43
2019-05-15T09:05:58.981Z,100237.75
2019-05-15T09:08:29.261Z,100237.72
2019-05-15T09:10:58.749Z,100240.45
2019-05-15T09:13:29.060Z,100231.69
2019-05-15T09:15:58.705Z,100228.45
2019-05-15T09:18:28.350Z,100223.80
2019-05-15T09:20:59.093Z,100223.77
2019-05-15T09:23:28.857Z,100215.23
2019-05-15T09:25:57.881Z,100215.27
2019-05-15T09:28:25.772Z,100215.54
2019-05-15T09:30:53.630Z,100205.42
2019-05-15T09:33:21.793Z,100208.86
2019-05-15T09:35:49.617Z,100201.09
2019-05-15T09:38:18.425Z,100195.48
2019-05-15T09:40:50.310Z,100185.70
2019-05-15T09:43:28.521Z,100175.92
2019-05-15T09:45:58.278Z,100179.52
2019-05-15T09:48:28.621Z,100162.27
2019-05-15T09:50:58.725Z,100167.75
2019-05-15T09:53:28.564Z,100164.98
2019-05-15T09:55:56.634Z,100144.84
2019-05-15T09:58:24.457Z,100156.71
2019-05-15T10:00:53.555Z,100157.33
2019-05-15T10:03:21.857Z,100154.12
2019-05-15T10:05:49.721Z,100145.93
2019-05-15T10:08:20.955Z,100140.92
2019-05-15T10:10:48.859Z,100134.88
2019-05-15T10:13:18.469Z,100129.49
2019-05-15T10:15:50.521Z,100116.71
2019-05-15T10:18:18.749Z,100118.23
2019-05-15T10:20:46.016Z,100113.20
2019-05-15T10:23:13.983Z,100125.64
2019-05-15T10:25:41.714Z,100103.28
2019-05-15T10:28:10.081Z,100110.34
2019-05-15T10:30:39.454Z,100105.80
2019-05-15T10:33:08.519Z,100108.68
2019-05-15T10:35:39.130Z,100104.13
2019-05-15T10:38:08.676Z,100108.00
2019-05-15T10:40:35.925Z,100102.05
2019-05-15T10:43:03.781Z,100098.30
2019-05-15T10:45:31.600Z,100090.41
2019-05-15T10:47:59.378Z,100092.81
2019-05-15T10:50:28.500Z,100100.38
2019-05-15T10:52:56.660Z,100099.34
2019-05-15T10:55:24.447Z,100107.37
2019-05-15T10:57:52.270Z,100094.75
2019-05-15T11:00:20.976Z,100091.22
2019-05-15T11:02:49.147Z,100087.87
2019-05-15T11:05:18.073Z,100100.67
2019-05-15T11:07:48.225Z,100078.09
2019-05-15T11:10:18.389Z,100072.13
2019-05-15T11:12:50.596Z,100069.41
2019-05-15T11:15:19.679Z,100068.41
2019-05-15T11:17:49.192Z,100076.45
2019-05-15T11:20:18.808Z,100083.64
2019-05-15T11:22:49.651Z,100070.24
2019-05-15T11:25:17.453Z,100065.14
2019-05-15T11:27:45.246Z,100060.52
2019-05-15T11:30:14.181Z,100072.20
2019-05-15T11:32:41.986Z,100059.38
2019-05-15T11:35:10.916Z,100064.19
2019-05-15T11:37:45.544Z,100058.60
2019-05-15T11:40:12.767Z,100061.73
2019-05-15T11:42:40.589Z,100060.28
2019-05-15T11:45:10.532Z,100063.45
2019-05-15T11:47:39.509Z,100064.16
2019-05-15T11:50:08.570Z,100061.06
2019-05-15T11:52:39.896Z,100059.56
2019-05-15T11:55:08.419Z,100059.03
2019-05-15T11:57:43.496Z,100054.56
2019-05-15T12:00:15.046Z,100061.37
2019-05-15T12:02:42.791Z,100055.78
2019-05-15T12:05:10.939Z,100058.73
2019-05-15T12:07:38.803Z,100057.25
2019-05-15T12:10:10.385Z,100066.67
2019-05-15T12:12:38.587Z,100062.39
2019-05-15T12:15:08.551Z,100068.25
2019-05-15T12:17:38.812Z,100065.11
2019-05-15T12:20:07.813Z,100067.93
2019-05-15T12:22:38.950Z,100066.35
2019-05-15T12:25:09.876Z,100068.53
2019-05-15T12:27:39.990Z,100061.65
2019-05-15T12:30:10.092Z,100065.17
2019-05-15T12:32:40.431Z,100058.51
2019-05-15T12:35:08.959Z,100058.41
2019-05-15T12:37:39.787Z,100051.79
2019-05-15T13:00:10.585Z,100035.86
2019-05-15T13:02:43.606Z,100027.13
2019-05-15T13:05:11.611Z,100026.53
2019-05-15T13:07:39.473Z,100031.77
2019-05-15T13:10:08.987Z,100019.30
2019-05-15T13:12:47.733Z,100009.77
2019-05-15T13:15:08.250Z,100013.86
2019-05-15T13:17:38.542Z,100004.41
2019-05-15T13:20:06.805Z,100008.89
2019-05-15T13:22:36.431Z,100008.50
2019-05-15T13:25:05.242Z,100013.36
2019-05-15T13:27:33.068Z,100011.88
2019-05-15T13:30:00.880Z,100010.61
2019-05-15T13:32:28.936Z,100009.36
2019-05-15T13:34:59.478Z,100006.98
2019-05-15T13:37:30.480Z,100014.91
2019-05-15T13:39:58.537Z,100009.14
2019-05-15T13:42:31.040Z,99997.37
2019-05-15T13:44:58.980Z,99997.53
2019-05-15T13:47:28.205Z,100011.88
2019-05-15T13:49:58.480Z,99992.77
2019-05-15T13:52:31.032Z,100002.18
2019-05-15T13:54:58.883Z,99990.52
2019-05-15T13:57:29.724Z,99987.57
2019-05-15T13:59:58.756Z,99977.97
2019-05-15T14:02:28.103Z,99970.45
2019-05-15T14:04:58.300Z,99957.06
2019-05-15T14:07:25.897Z,99969.30
2019-05-15T14:09:53.754Z,99962.23
2019-05-15T14:12:21.915Z,99965.09
2019-05-15T14:14:49.925Z,99962.80
2019-05-15T14:17:17.810Z,99969.80
2019-05-15T14:19:45.619Z,99977.67
2019-05-15T14:22:13.566Z,99975.64
2019-05-15T14:24:41.357Z,99980.67
2019-05-15T14:27:09.188Z,99983.66
2019-05-15T14:29:37.039Z,99986.57
2019-05-15T14:32:04.999Z,99989.86
2019-05-15T14:34:32.990Z,99997.75
2019-05-15T14:37:01.147Z,99996.42
2019-05-15T14:39:28.954Z,99996.73
2019-05-15T14:41:58.368Z,99996.11
2019-05-15T14:44:26.342Z,99997.38
2019-05-15T14:46:54.145Z,99989.64
2019-05-15T14:49:21.964Z,99997.59
2019-05-15T14:52:04.256Z,99992.20
2019-05-15T14:54:19.599Z,99993.73
2019-05-15T14:56:48.690Z,99991.03
2019-05-15T14:59:16.545Z,99997.20
2019-05-15T15:01:44.647Z,99995.48
2019-05-15T15:04:12.421Z,99990.78
2019-05-15T15:06:40.465Z,99990.43
2019-05-15T15:09:08.901Z,99989.97
2019-05-15T15:11:38.539Z,99992.06
2019-05-15T15:14:08.585Z,99996.22
2019-05-15T15:16:38.407Z,99992.54
2019-05-15T15:19:06.187Z,99993.70
2019-05-15T15:21:34.470Z,99999.72
2019-05-15T15:24:02.230Z,100004.34
2019-05-15T15:26:30.087Z,100005.52
2019-05-15T15:28:59.031Z,100007.88
2019-05-15T15:31:28.908Z,100008.52
2019-05-15T15:33:57.925Z,100009.42
2019-05-15T15:36:28.393Z,100015.28
2019-05-15T15:38:55.979Z,100015.08
2019-05-15T15:41:24.409Z,100020.15
2019-05-15T15:43:52.411Z,100020.65
2019-05-15T15:46:20.359Z,100021.22
2019-05-15T15:48:48.429Z,100027.02
2019-05-15T15:51:17.890Z,100027.00
2019-05-15T15:53:48.003Z,100022.83
2019-05-15T15:56:18.266Z,100031.36
2019-05-15T15:58:45.772Z,100030.55
2019-05-15T16:01:14.684Z,100033.28
2019-05-15T16:03:42.724Z,100029.62
2019-05-15T16:06:11.220Z,100034.21
2019-05-15T16:08:52.060Z,100034.55
2019-05-15T16:11:09.936Z,100042.56
2019-05-15T16:13:39.094Z,100033.52
2019-05-15T16:16:08.602Z,100032.73
2019-05-15T16:18:38.594Z,100033.29
2019-05-15T16:21:08.203Z,100033.49
2019-05-15T16:23:38.577Z,100030.46
2019-05-15T16:26:09.029Z,100026.49
2019-05-15T16:28:39.069Z,100025.22
2019-05-15T16:31:07.925Z,100026.25
2019-05-15T16:33:38.834Z,100028.33
2019-05-15T16:36:08.675Z,100029.06
2019-05-15T16:38:38.801Z,100023.77
2019-05-15T16:41:08.814Z,100019.07
2019-05-15T16:43:57.493Z,100018.53
2019-05-15T16:46:25.251Z,100018.98
2019-05-15T16:48:53.055Z,100015.44
2019-05-15T16:51:20.821Z,100020.98
2019-05-15T16:53:48.979Z,100017.01
2019-05-15T16:56:18.941Z,100016.87
2019-05-15T16:58:48.066Z,100014.86
2019-05-15T17:01:18.584Z,100015.44
2019-05-15T17:03:45.926Z,100011.78
2019-05-15T17:06:14.357Z,100009.42
2019-05-15T17:08:42.184Z,100009.66
2019-05-15T17:11:10.029Z,100007.47
2019-05-15T17:13:39.377Z,100010.59
2019-05-15T17:16:07.739Z,100008.37
2019-05-15T17:18:38.005Z,100009.23
2019-05-15T17:21:09.510Z,100008.43
2019-05-15T17:23:35.397Z,100008.12
2019-05-15T17:26:03.288Z,99985.91
2019-05-15T17:28:31.051Z,99978.17
2019-05-15T17:30:58.812Z,100001.18
2019-05-15T17:33:28.911Z,100004.25
2019-05-15T17:35:58.051Z,100001.05
2019-05-15T17:38:28.495Z,100001.77
2019-05-15T17:40:57.720Z,99999.54
2019-05-15T17:43:30.756Z,99991.75
2019-05-15T17:45:58.588Z,99990.06
2019-05-15T17:48:28.841Z,99987.44
2019-05-15T17:50:58.275Z,99989.84
2019-05-15T17:53:31.007Z,99985.41
2019-05-15T17:55:58.945Z,99986.57
2019-05-15T17:58:28.894Z,99985.28
2019-05-15T18:00:59.215Z,99983.44
2019-05-15T18:03:28.698Z,99984.98
2019-05-15T18:05:56.110Z,99984.67
2019-05-15T18:08:23.937Z,99983.36
2019-05-15T18:10:51.774Z,99981.98
2019-05-15T18:13:19.578Z,99980.02
2019-05-15T18:15:48.920Z,99980.97
2019-05-15T18:18:18.660Z,99979.16
2019-05-15T18:20:48.678Z,99978.37
2019-05-15T18:23:18.724Z,99976.80
2019-05-15T18:25:48.818Z,99975.82
2019-05-15T18:28:18.499Z,99974.34
2019-05-15T18:30:47.831Z,99975.49
2019-05-15T18:33:15.700Z,99971.55
2019-05-15T18:35:43.573Z,99968.80
2019-05-15T18:38:11.383Z,99971.33
2019-05-15T18:40:39.131Z,99971.84
2019-05-15T18:43:10.413Z,99973.84
2019-05-15T18:45:38.511Z,99972.70
2019-05-15T18:48:06.288Z,99973.23
2019-05-15T18:50:34.444Z,99973.54
2019-05-15T18:53:02.905Z,99969.57
2019-05-15T18:55:30.722Z,99970.46
2019-05-15T18:58:02.803Z,99970.94
2019-05-15T19:00:30.609Z,99968.67
2019-05-15T19:02:59.568Z,99969.69
2019-05-15T19:05:28.122Z,99971.33
2019-05-15T19:07:57.941Z,99974.50
2019-05-15T19:10:28.119Z,99965.73
2019-05-15T19:12:57.905Z,99969.41
2019-05-15T19:15:25.589Z,99972.55
2019-05-15T19:17:53.640Z,99971.07
2019-05-15T19:20:23.425Z,99973.53
2019-05-15T19:22:58.693Z,99969.91
2019-05-15T19:25:28.389Z,99967.42
2019-05-15T19:27:56.168Z,99966.30
2019-05-15T19:30:24.431Z,99965.98
2019-05-15T19:32:52.281Z,99968.34
2019-05-15T19:35:20.307Z,99965.41
2019-05-15T19:37:48.930Z,99963.11
2019-05-15T19:40:18.764Z,99964.58
2019-05-15T19:42:48.820Z,99958.48
2019-05-15T19:45:16.789Z,99960.66
2019-05-15T19:47:44.611Z,99962.49
2019-05-15T19:50:12.673Z,99963.97
2019-05-15T19:52:42.075Z,99962.81
2019-05-15T19:55:09.967Z,99962.30
2019-05-15T19:57:38.942Z,99961.01
2019-05-15T20:00:08.502Z,99960.19
2019-05-15T20:02:38.080Z,99903.88
2019-05-15T20:05:09.107Z,99963.17
2019-05-15T20:07:38.960Z,99934.03
2019-05-15T20:10:06.947Z,99956.39
2019-05-15T20:12:34.755Z,99956.59
2019-05-15T20:15:03.109Z,99958.06
2019-05-15T20:17:32.768Z,99960.03
2019-05-15T20:20:02.994Z,99960.89
2019-05-15T20:22:30.818Z,99954.64
2019-05-15T20:24:58.870Z,99949.97
2019-05-15T20:27:28.181Z,99941.91
2019-05-15T20:29:56.121Z,99941.88
2019-05-15T20:32:23.930Z,99942.25
2019-05-15T20:34:51.720Z,99941.58
2019-05-15T20:37:19.533Z,99940.55
2019-05-15T20:39:49.253Z,99940.05
2019-05-15T20:42:18.152Z,99934.11
2019-05-15T20:44:48.415Z,99930.19
2019-05-15T20:47:18.556Z,99930.02
2019-05-15T20:49:45.709Z,99928.06
2019-05-15T20:52:13.538Z,99926.44
2019-05-15T20:54:41.345Z,99924.48
2019-05-15T20:57:10.340Z,99925.51
2019-05-15T20:59:38.756Z,99925.82
2019-05-15T21:02:08.127Z,99922.88
2019-05-15T21:04:38.397Z,99925.69
2019-05-15T21:07:07.904Z,99923.23
2019-05-15T21:09:35.580Z,99921.28
2019-05-15T21:12:03.513Z,99923.59
2019-05-15T21:14:31.252Z,99922.76
2019-05-15T21:16:59.184Z,99914.38
2019-05-15T21:19:27.927Z,99919.83
2019-05-15T21:21:56.021Z,99921.48
2019-05-15T21:24:23.792Z,99916.36
2019-05-15T21:26:51.586Z,99912.08
2019-05-15T21:29:21.751Z,99912.76
2019-05-15T21:31:54.730Z,99913.08
2019-05-15T21:34:36.645Z,99914.06
2019-05-15T21:36:52.291Z,99912.27
2019-05-15T21:39:20.384Z,99913.58
2019-05-15T21:41:48.877Z,99907.96
2019-05-15T21:44:18.919Z,99906.17
2019-05-15T21:46:49.822Z,99898.42
2019-05-15T21:49:18.992Z,99901.73
2019-05-15T21:51:47.843Z,99899.92
2019-05-15T21:54:16.007Z,99895.97
2019-05-15T21:56:47.543Z,99886.44
2019-05-15T21:59:18.791Z,99888.89
2019-05-15T22:01:58.954Z,99890.53
2019-05-15T22:04:28.155Z,99884.27
2019-05-15T22:07:53.473Z,99881.47
2019-05-15T22:10:22.039Z,99875.72
2019-05-15T22:13:09.611Z,99867.99
2019-05-15T22:15:37.641Z,99861.73
2019-05-15T22:18:10.967Z,99864.20
2019-05-15T22:20:36.021Z,99859.43
2019-05-15T22:23:03.795Z,99855.97
2019-05-15T22:25:31.591Z,99850.88
2019-05-15T22:28:01.104Z,99858.78
2019-05-15T22:30:30.408Z,99845.41
2019-05-15T22:32:58.893Z,99847.53
2019-05-15T22:35:29.553Z,99846.08
2019-05-15T22:37:58.439Z,99843.27
2019-05-15T22:40:28.892Z,99841.77
2019-05-15T22:42:59.205Z,99844.57
2019-05-15T22:45:28.524Z,99840.29
2019-05-15T22:47:58.669Z,99836.53
2019-05-15T22:50:28.173Z,99834.05
2019-05-15T22:52:58.384Z,99828.95
2019-05-15T22:55:25.856Z,99827.82
2019-05-15T22:57:53.594Z,99827.81
2019-05-15T23:00:21.541Z,99831.59
2019-05-15T23:02:49.675Z,99822.06
2019-05-15T23:05:25.129Z,99822.22
2019-05-15T23:07:48.182Z,99815.46
2019-05-15T23:10:16.584Z,99811.50
2019-05-15T23:12:54.447Z,99811.17
2019-05-15T23:15:22.228Z,99805.60
2019-05-15T23:17:50.344Z,99807.92
2019-05-15T23:20:18.402Z,99801.50
2019-05-15T23:23:10.917Z,99793.27
2019-05-15T23:25:39.962Z,99789.45
2019-05-15T23:28:08.540Z,99787.66
2019-05-15T23:30:36.596Z,99784.22
2019-05-15T23:33:14.525Z,99783.23
2019-05-15T23:35:42.311Z,99777.95
2019-05-15T23:38:10.100Z,99768.23
2019-05-15T23:40:37.875Z,99765.11
2019-05-15T23:43:08.673Z,99765.77
2019-05-15T23:45:35.519Z,99766.43
2019-05-15T23:48:03.324Z,99767.77
2019-05-15T23:50:31.048Z,99766.28
2019-05-15T23:52:59.099Z,99761.33
2019-05-15T23:55:28.539Z,99758.52
2019-05-15T23:57:58.429Z,99755.39
